sensor_id;sensor_type;location;lat;lon;timestamp;pressure;altitude;pressure_sealevel;temperature;humidity
21980;BME280;11154;48.558;9.234;2022-07-23T00:01:23;97559.75;;;23.85;83.38
21980;BME280;11154;48.558;9.234;2022-07-23T00:03:26;97521.38;;;23.81;83.35
21980;BME280;11154;48.558;9.234;2022-07-23T00:05:28;97495.44;;;23.74;83.00
21980;BME280;11154;48.558;9.234;2022-07-23T00:07:30;97500.63;;;23.75;84.77
21980;BME280;11154;48.558;9.234;2022-07-23T00:09:32;97524.63;;;23.67;85.30
21980;BME280;11154;48.558;9.234;2022-07-23T00:11:33;97522.75;;;23.67;85.91
21980;BME280;11154;48.558;9.234;2022-07-23T00:13:36;97524.88;;;23.65;86.11
21980;BME280;11154;48.558;9.234;2022-07-23T00:15:38;97533.25;;;23.64;84.52
21980;BME280;11154;48.558;9.234;2022-07-23T00:17:39;97538.69;;;23.64;85.37
21980;BME280;11154;48.558;9.234;2022-07-23T00:19:43;97518.75;;;23.58;87.34
21980;BME280;11154;48.558;9.234;2022-07-23T00:21:44;97513.38;;;23.47;88.86
21980;BME280;11154;48.558;9.234;2022-07-23T00:23:46;97502.31;;;23.37;89.31
21980;BME280;11154;48.558;9.234;2022-07-23T00:25:48;97507.16;;;23.35;91.27
21980;BME280;11154;48.558;9.234;2022-07-23T00:27:49;97505.91;;;23.26;92.43
21980;BME280;11154;48.558;9.234;2022-07-23T00:29:51;97512.31;;;23.20;92.66
21980;BME280;11154;48.558;9.234;2022-07-23T00:31:53;97511.13;;;23.16;92.71
21980;BME280;11154;48.558;9.234;2022-07-23T00:33:54;97519.50;;;23.15;91.72
21980;BME280;11154;48.558;9.234;2022-07-23T00:35:58;97517.13;;;23.18;93.15
21980;BME280;11154;48.558;9.234;2022-07-23T00:38:01;97517.72;;;23.20;93.26
21980;BME280;11154;48.558;9.234;2022-07-23T00:40:04;97528.94;;;23.12;93.10
21980;BME280;11154;48.558;9.234;2022-07-23T00:42:06;97523.19;;;23.09;93.52
21980;BME280;11154;48.558;9.234;2022-07-23T00:44:15;97527.28;;;23.11;92.58
21980;BME280;11154;48.558;9.234;2022-07-23T00:46:19;97530.09;;;23.16;92.81
21980;BME280;11154;48.558;9.234;2022-07-23T00:48:20;97515.72;;;23.16;91.76
21980;BME280;11154;48.558;9.234;2022-07-23T00:50:22;97519.50;;;23.15;91.41
21980;BME280;11154;48.558;9.234;2022-07-23T00:52:25;97529.16;;;23.22;92.53
21980;BME280;11154;48.558;9.234;2022-07-23T00:54:27;97533.25;;;23.25;92.12
21980;BME280;11154;48.558;9.234;2022-07-23T00:56:29;97540.00;;;23.22;86.03
21980;BME280;11154;48.558;9.234;2022-07-23T00:58:32;97540.94;;;23.27;85.76
21980;BME280;11154;48.558;9.234;2022-07-23T01:00:35;97530.44;;;23.31;85.91
21980;BME280;11154;48.558;9.234;2022-07-23T01:02:37;97523.69;;;23.33;85.10
21980;BME280;11154;48.558;9.234;2022-07-23T01:04:39;97540.91;;;23.39;83.01
21980;BME280;11154;48.558;9.234;2022-07-23T01:06:43;97530.63;;;23.41;82.04
21980;BME280;11154;48.558;9.234;2022-07-23T01:08:46;97519.28;;;23.44;82.15
21980;BME280;11154;48.558;9.234;2022-07-23T01:10:48;97505.13;;;23.42;86.24
21980;BME280;11154;48.558;9.234;2022-07-23T01:12:51;97528.41;;;23.38;87.72
21980;BME280;11154;48.558;9.234;2022-07-23T01:14:54;97528.88;;;23.35;89.05
21980;BME280;11154;48.558;9.234;2022-07-23T01:16:56;97509.78;;;23.30;88.80
21980;BME280;11154;48.558;9.234;2022-07-23T01:18:57;97516.97;;;23.25;90.69
21980;BME280;11154;48.558;9.234;2022-07-23T01:20:59;97500.25;;;23.16;87.83
21980;BME280;11154;48.558;9.234;2022-07-23T01:23:02;97496.59;;;23.22;89.01
21980;BME280;11154;48.558;9.234;2022-07-23T01:25:05;97476.19;;;23.20;87.31
21980;BME280;11154;48.558;9.234;2022-07-23T01:29:09;97480.28;;;23.22;86.46
21980;BME280;11154;48.558;9.234;2022-07-23T01:31:11;97483.84;;;23.23;86.11
21980;BME280;11154;48.558;9.234;2022-07-23T01:33:13;97464.50;;;23.19;87.62
21980;BME280;11154;48.558;9.234;2022-07-23T01:35:14;97450.59;;;23.16;88.48
21980;BME280;11154;48.558;9.234;2022-07-23T01:37:16;97417.09;;;23.10;89.48
21980;BME280;11154;48.558;9.234;2022-07-23T01:39:19;97414.06;;;23.07;88.64
21980;BME280;11154;48.558;9.234;2022-07-23T01:41:21;97404.50;;;23.04;88.01
21980;BME280;11154;48.558;9.234;2022-07-23T01:43:23;97392.84;;;23.04;86.86
21980;BME280;11154;48.558;9.234;2022-07-23T01:45:24;97401.00;;;23.04;85.62
21980;BME280;11154;48.558;9.234;2022-07-23T01:47:26;97409.69;;;23.06;86.66
21980;BME280;11154;48.558;9.234;2022-07-23T01:49:28;97418.41;;;23.08;87.13
21980;BME280;11154;48.558;9.234;2022-07-23T01:51:29;97423.03;;;23.07;87.29
21980;BME280;11154;48.558;9.234;2022-07-23T01:53:31;97440.03;;;23.03;89.07
21980;BME280;11154;48.558;9.234;2022-07-23T01:55:34;97436.69;;;23.01;89.85
21980;BME280;11154;48.558;9.234;2022-07-23T01:57:36;97451.47;;;22.93;92.81
21980;BME280;11154;48.558;9.234;2022-07-23T01:59:38;97451.94;;;22.90;92.50
21980;BME280;11154;48.558;9.234;2022-07-23T02:01:40;97456.91;;;22.82;93.94
21980;BME280;11154;48.558;9.234;2022-07-23T02:03:41;97474.38;;;22.74;95.50
21980;BME280;11154;48.558;9.234;2022-07-23T02:05:43;97465.81;;;22.66;96.29
21980;BME280;11154;48.558;9.234;2022-07-23T02:07:45;97470.97;;;22.56;95.66
21980;BME280;11154;48.558;9.234;2022-07-23T02:09:46;97468.97;;;22.52;95.75
21980;BME280;11154;48.558;9.234;2022-07-23T02:11:49;97458.63;;;22.49;95.14
21980;BME280;11154;48.558;9.234;2022-07-23T02:13:51;97467.81;;;22.48;95.27
21980;BME280;11154;48.558;9.234;2022-07-23T02:15:53;97474.53;;;22.45;94.50
21980;BME280;11154;48.558;9.234;2022-07-23T02:17:55;97491.03;;;22.44;93.32
21980;BME280;11154;48.558;9.234;2022-07-23T02:19:57;97488.91;;;22.46;93.12
21980;BME280;11154;48.558;9.234;2022-07-23T02:21:59;97510.59;;;22.46;92.11
21980;BME280;11154;48.558;9.234;2022-07-23T02:24:00;97520.13;;;22.48;92.20
21980;BME280;11154;48.558;9.234;2022-07-23T02:26:02;97529.81;;;22.55;91.85
21980;BME280;11154;48.558;9.234;2022-07-23T02:28:05;97536.91;;;22.56;89.37
21980;BME280;11154;48.558;9.234;2022-07-23T02:30:07;97537.00;;;22.61;90.38
21980;BME280;11154;48.558;9.234;2022-07-23T02:32:09;97553.38;;;22.66;90.24
21980;BME280;11154;48.558;9.234;2022-07-23T02:34:11;97558.56;;;22.68;86.95
21980;BME280;11154;48.558;9.234;2022-07-23T02:36:13;97559.50;;;22.73;87.40
21980;BME280;11154;48.558;9.234;2022-07-23T02:38:14;97563.88;;;22.74;84.30
21980;BME280;11154;48.558;9.234;2022-07-23T02:40:16;97562.69;;;22.82;82.70
21980;BME280;11154;48.558;9.234;2022-07-23T02:42:18;97555.50;;;22.87;82.51
21980;BME280;11154;48.558;9.234;2022-07-23T02:44:21;97554.75;;;22.92;82.58
21980;BME280;11154;48.558;9.234;2022-07-23T02:46:23;97558.91;;;22.94;82.92
21980;BME280;11154;48.558;9.234;2022-07-23T02:48:25;97558.06;;;22.94;80.93
21980;BME280;11154;48.558;9.234;2022-07-23T02:50:26;97557.25;;;22.93;80.60
21980;BME280;11154;48.558;9.234;2022-07-23T02:52:28;97558.31;;;22.92;82.03
21980;BME280;11154;48.558;9.234;2022-07-23T02:54:30;97562.59;;;22.88;84.37
21980;BME280;11154;48.558;9.234;2022-07-23T02:56:31;97568.72;;;22.84;85.16
21980;BME280;11154;48.558;9.234;2022-07-23T02:58:33;97554.78;;;22.80;83.88
21980;BME280;11154;48.558;9.234;2022-07-23T03:00:36;97563.50;;;22.82;84.12
21980;BME280;11154;48.558;9.234;2022-07-23T03:02:38;97560.78;;;22.82;85.21
21980;BME280;11154;48.558;9.234;2022-07-23T03:04:40;97563.88;;;22.74;86.14
21980;BME280;11154;48.558;9.234;2022-07-23T03:06:42;97568.25;;;22.75;85.27
21980;BME280;11154;48.558;9.234;2022-07-23T03:08:44;97573.66;;;22.75;85.72
21980;BME280;11154;48.558;9.234;2022-07-23T03:10:45;97572.81;;;22.75;84.94
21980;BME280;11154;48.558;9.234;2022-07-23T03:12:47;97564.94;;;22.73;84.07
21980;BME280;11154;48.558;9.234;2022-07-23T03:14:49;97566.59;;;22.74;84.40
21980;BME280;11154;48.558;9.234;2022-07-23T03:16:52;97580.16;;;22.74;83.85
21980;BME280;11154;48.558;9.234;2022-07-23T03:18:54;97586.03;;;22.71;82.64
21980;BME280;11154;48.558;9.234;2022-07-23T03:20:56;97581.44;;;22.72;81.79
21980;BME280;11154;48.558;9.234;2022-07-23T03:22:58;97577.09;;;22.71;84.11
21980;BME280;11154;48.558;9.234;2022-07-23T03:24:59;97583.81;;;22.68;85.44
21980;BME280;11154;48.558;9.234;2022-07-23T03:27:01;97581.31;;;22.67;86.07
21980;BME280;11154;48.558;9.234;2022-07-23T03:29:03;97575.66;;;22.68;86.53
21980;BME280;11154;48.558;9.234;2022-07-23T03:31:05;97581.78;;;22.64;89.03
21980;BME280;11154;48.558;9.234;2022-07-23T03:33:08;97584.16;;;22.60;88.36
21980;BME280;11154;48.558;9.234;2022-07-23T03:35:10;97580.59;;;22.60;89.76
21980;BME280;11154;48.558;9.234;2022-07-23T03:37:12;97578.47;;;22.51;90.08
21980;BME280;11154;48.558;9.234;2022-07-23T03:39:13;97570.09;;;22.41;90.67
21980;BME280;11154;48.558;9.234;2022-07-23T03:41:15;97561.00;;;22.35;90.00
21980;BME280;11154;48.558;9.234;2022-07-23T03:43:17;97556.53;;;22.29;90.53
21980;BME280;11154;48.558;9.234;2022-07-23T03:45:18;97551.09;;;22.29;89.92
21980;BME280;11154;48.558;9.234;2022-07-23T03:47:20;97556.97;;;22.26;89.08
21980;BME280;11154;48.558;9.234;2022-07-23T03:49:24;97558.84;;;22.26;89.13
21980;BME280;11154;48.558;9.234;2022-07-23T03:51:25;97568.22;;;22.30;88.91
21980;BME280;11154;48.558;9.234;2022-07-23T03:53:27;97566.06;;;22.32;88.47
21980;BME280;11154;48.558;9.234;2022-07-23T03:55:29;97571.72;;;22.30;89.09
21980;BME280;11154;48.558;9.234;2022-07-23T03:57:31;97571.97;;;22.29;89.10
21980;BME280;11154;48.558;9.234;2022-07-23T03:59:32;97578.41;;;22.28;89.47
21980;BME280;11154;48.558;9.234;2022-07-23T04:01:34;97576.19;;;22.25;89.23
21980;BME280;11154;48.558;9.234;2022-07-23T04:03:36;97585.38;;;22.24;89.33
21980;BME280;11154;48.558;9.234;2022-07-23T04:05:39;97587.47;;;22.22;89.06
21980;BME280;11154;48.558;9.234;2022-07-23T04:07:41;97597.38;;;22.28;87.65
21980;BME280;11154;48.558;9.234;2022-07-23T04:09:42;97600.84;;;22.35;87.54
21980;BME280;11154;48.558;9.234;2022-07-23T04:11:44;97603.69;;;22.40;87.41
21980;BME280;11154;48.558;9.234;2022-07-23T04:13:46;97602.19;;;22.44;87.34
21980;BME280;11154;48.558;9.234;2022-07-23T04:15:48;97595.47;;;22.46;88.21
21980;BME280;11154;48.558;9.234;2022-07-23T04:17:50;97591.91;;;22.46;88.19
21980;BME280;11154;48.558;9.234;2022-07-23T04:19:52;97596.28;;;22.47;88.15
21980;BME280;11154;48.558;9.234;2022-07-23T04:21:55;97594.84;;;22.44;88.83
21980;BME280;11154;48.558;9.234;2022-07-23T04:23:57;97599.22;;;22.45;89.18
21980;BME280;11154;48.558;9.234;2022-07-23T04:25:58;97596.75;;;22.44;90.18
21980;BME280;11154;48.558;9.234;2022-07-23T04:28:00;97600.97;;;22.40;91.79
21980;BME280;11154;48.558;9.234;2022-07-23T04:30:02;97596.97;;;22.31;92.70
21980;BME280;11154;48.558;9.234;2022-07-23T04:32:04;97591.38;;;22.26;92.32
21980;BME280;11154;48.558;9.234;2022-07-23T04:34:06;97600.78;;;22.23;93.01
21980;BME280;11154;48.558;9.234;2022-07-23T04:36:08;97610.81;;;22.23;93.70
21980;BME280;11154;48.558;9.234;2022-07-23T04:38:11;97609.84;;;22.17;93.84
21980;BME280;11154;48.558;9.234;2022-07-23T04:40:13;97605.72;;;22.15;94.66
21980;BME280;11154;48.558;9.234;2022-07-23T04:42:15;97612.44;;;22.12;94.75
21980;BME280;11154;48.558;9.234;2022-07-23T04:44:16;97610.09;;;22.16;94.75
21980;BME280;11154;48.558;9.234;2022-07-23T04:46:18;97613.16;;;22.19;94.32
21980;BME280;11154;48.558;9.234;2022-07-23T04:48:20;97604.34;;;22.24;93.62
21980;BME280;11154;48.558;9.234;2022-07-23T04:50:21;97599.28;;;22.27;93.72
21980;BME280;11154;48.558;9.234;2022-07-23T04:52:23;97586.13;;;22.31;93.56
21980;BME280;11154;48.558;9.234;2022-07-23T04:54:27;97595.66;;;22.33;93.20
21980;BME280;11154;48.558;9.234;2022-07-23T04:56:28;97594.00;;;22.32;92.85
21980;BME280;11154;48.558;9.234;2022-07-23T04:58:30;97592.47;;;22.36;91.71
21980;BME280;11154;48.558;9.234;2022-07-23T05:00:32;97591.53;;;22.42;92.84
21980;BME280;11154;48.558;9.234;2022-07-23T05:02:34;97598.38;;;22.45;92.24
21980;BME280;11154;48.558;9.234;2022-07-23T05:04:36;97608.28;;;22.51;93.09
21980;BME280;11154;48.558;9.234;2022-07-23T05:06:39;97610.31;;;22.55;92.87
21980;BME280;11154;48.558;9.234;2022-07-23T05:08:40;97616.56;;;22.55;92.22
21980;BME280;11154;48.558;9.234;2022-07-23T05:10:43;97617.63;;;22.54;93.40
21980;BME280;11154;48.558;9.234;2022-07-23T05:12:45;97618.69;;;22.53;94.86
21980;BME280;11154;48.558;9.234;2022-07-23T05:14:47;97614.31;;;22.52;95.64
21980;BME280;11154;48.558;9.234;2022-07-23T05:16:49;97618.56;;;22.49;95.76
21980;BME280;11154;48.558;9.234;2022-07-23T05:18:50;97616.91;;;22.48;96.74
21980;BME280;11154;48.558;9.234;2022-07-23T05:20:53;97614.19;;;22.48;97.91
21980;BME280;11154;48.558;9.234;2022-07-23T05:22:54;97606.50;;;22.45;97.53
21980;BME280;11154;48.558;9.234;2022-07-23T05:24:56;97609.81;;;22.47;97.39
21980;BME280;11154;48.558;9.234;2022-07-23T05:26:59;97609.81;;;22.47;97.92
21980;BME280;11154;48.558;9.234;2022-07-23T05:29:01;97610.44;;;22.49;98.53
21980;BME280;11154;48.558;9.234;2022-07-23T05:31:03;97610.06;;;22.45;98.56
21980;BME280;11154;48.558;9.234;2022-07-23T05:33:07;97612.78;;;22.45;97.37
21980;BME280;11154;48.558;9.234;2022-07-23T05:35:09;97610.44;;;22.49;98.34
21980;BME280;11154;48.558;9.234;2022-07-23T05:37:10;97611.34;;;22.54;98.43
21980;BME280;11154;48.558;9.234;2022-07-23T05:39:12;97611.97;;;22.56;98.78
21980;BME280;11154;48.558;9.234;2022-07-23T05:41:14;97606.19;;;22.52;98.68
21980;BME280;11154;48.558;9.234;2022-07-23T05:43:17;97607.47;;;22.50;99.37
21980;BME280;11154;48.558;9.234;2022-07-23T05:45:19;97598.88;;;22.53;98.37
21980;BME280;11154;48.558;9.234;2022-07-23T05:47:20;97616.09;;;22.58;98.97
21980;BME280;11154;48.558;9.234;2022-07-23T05:49:22;97623.28;;;22.64;98.44
21980;BME280;11154;48.558;9.234;2022-07-23T05:51:24;97613.63;;;22.68;99.43
21980;BME280;11154;48.558;9.234;2022-07-23T05:53:26;97613.38;;;22.70;100.00
21980;BME280;11154;48.558;9.234;2022-07-23T05:55:28;97612.31;;;22.59;100.00
21980;BME280;11154;48.558;9.234;2022-07-23T05:57:31;97621.16;;;22.55;100.00
21980;BME280;11154;48.558;9.234;2022-07-23T05:59:34;97615.84;;;22.49;100.00
21980;BME280;11154;48.558;9.234;2022-07-23T06:01:36;97605.34;;;22.41;100.00
21980;BME280;11154;48.558;9.234;2022-07-23T06:03:38;97615.22;;;22.35;100.00
21980;BME280;11154;48.558;9.234;2022-07-23T06:05:39;97611.22;;;22.38;100.00
21980;BME280;11154;48.558;9.234;2022-07-23T06:07:41;97613.34;;;22.36;100.00
21980;BME280;11154;48.558;9.234;2022-07-23T06:09:43;97607.44;;;22.39;100.00
21980;BME280;11154;48.558;9.234;2022-07-23T06:11:44;97608.84;;;22.41;100.00
21980;BME280;11154;48.558;9.234;2022-07-23T06:13:46;97605.47;;;22.46;100.00
21980;BME280;11154;48.558;9.234;2022-07-23T06:15:49;97603.34;;;22.48;99.40
21980;BME280;11154;48.558;9.234;2022-07-23T06:17:51;97604.66;;;22.56;99.39
21980;BME280;11154;48.558;9.234;2022-07-23T06:19:53;97606.06;;;22.70;99.93
21980;BME280;11154;48.558;9.234;2022-07-23T06:21:54;97597.59;;;22.78;98.56
21980;BME280;11154;48.558;9.234;2022-07-23T06:23:56;97584.28;;;22.88;97.76
21980;BME280;11154;48.558;9.234;2022-07-23T06:25:58;97588.63;;;22.89;96.88
21980;BME280;11154;48.558;9.234;2022-07-23T06:27:59;97584.75;;;22.97;96.74
21980;BME280;11154;48.558;9.234;2022-07-23T06:30:01;97591.56;;;22.99;95.60
21980;BME280;11154;48.558;9.234;2022-07-23T06:32:04;97584.38;;;23.05;95.77
21980;BME280;11154;48.558;9.234;2022-07-23T06:34:06;97592.41;;;23.11;93.96
21980;BME280;11154;48.558;9.234;2022-07-23T06:36:08;97607.59;;;23.24;92.06
21980;BME280;11154;48.558;9.234;2022-07-23T06:38:10;97613.72;;;23.42;91.71
21980;BME280;11154;48.558;9.234;2022-07-23T06:40:12;97613.44;;;23.55;91.17
21980;BME280;11154;48.558;9.234;2022-07-23T06:42:14;97616.38;;;23.65;93.25
21980;BME280;11154;48.558;9.234;2022-07-23T06:44:15;97613.53;;;23.71;93.32
21980;BME280;11154;48.558;9.234;2022-07-23T06:46:17;97617.22;;;23.77;92.08
21980;BME280;11154;48.558;9.234;2022-07-23T06:48:20;97611.63;;;23.83;92.63
21980;BME280;11154;48.558;9.234;2022-07-23T06:50:23;97607.69;;;23.91;92.33
21980;BME280;11154;48.558;9.234;2022-07-23T06:52:25;97605.97;;;24.01;92.94
21980;BME280;11154;48.558;9.234;2022-07-23T06:54:27;97614.22;;;24.06;90.75
21980;BME280;11154;48.558;9.234;2022-07-23T06:56:29;97614.56;;;24.09;88.90
21980;BME280;11154;48.558;9.234;2022-07-23T06:58:31;97625.06;;;24.17;87.76
21980;BME280;11154;48.558;9.234;2022-07-23T07:00:32;97616.84;;;24.29;88.95
21980;BME280;11154;48.558;9.234;2022-07-23T07:02:34;97628.06;;;24.32;87.41
21980;BME280;11154;48.558;9.234;2022-07-23T07:04:37;97634.38;;;24.38;86.41
21980;BME280;11154;48.558;9.234;2022-07-23T07:06:39;97641.97;;;24.47;86.84
21980;BME280;11154;48.558;9.234;2022-07-23T07:08:41;97639.31;;;24.52;85.39
21980;BME280;11154;48.558;9.234;2022-07-23T07:10:43;97645.78;;;24.63;87.94
21980;BME280;11154;48.558;9.234;2022-07-23T07:12:45;97644.00;;;24.73;88.10
21980;BME280;11154;48.558;9.234;2022-07-23T07:14:46;97651.22;;;24.79;85.27
21980;BME280;11154;48.558;9.234;2022-07-23T07:16:48;97640.88;;;24.81;82.83
21980;BME280;11154;48.558;9.234;2022-07-23T07:18:50;97648.13;;;24.92;84.25
21980;BME280;11154;48.558;9.234;2022-07-23T07:20:53;97650.19;;;25.01;84.32
21980;BME280;11154;48.558;9.234;2022-07-23T07:22:55;97646.97;;;25.04;81.74
21980;BME280;11154;48.558;9.234;2022-07-23T07:24:56;97644.53;;;25.03;81.47
21980;BME280;11154;48.558;9.234;2022-07-23T07:26:58;97634.38;;;24.98;82.51
21980;BME280;11154;48.558;9.234;2022-07-23T07:29:00;97635.69;;;24.96;82.29
21980;BME280;11154;48.558;9.234;2022-07-23T07:31:02;97625.81;;;24.90;81.43
21980;BME280;11154;48.558;9.234;2022-07-23T07:33:03;97626.88;;;24.89;81.13
21980;BME280;11154;48.558;9.234;2022-07-23T07:35:06;97640.81;;;24.92;78.79
21980;BME280;11154;48.558;9.234;2022-07-23T07:37:09;97646.06;;;24.99;77.19
21980;BME280;11154;48.558;9.234;2022-07-23T07:39:11;97656.72;;;25.00;75.91
21980;BME280;11154;48.558;9.234;2022-07-23T07:41:13;97654.22;;;24.99;76.03
21980;BME280;11154;48.558;9.234;2022-07-23T07:43:15;97658.69;;;25.05;78.44
21980;BME280;11154;48.558;9.234;2022-07-23T07:45:17;97659.53;;;25.05;76.29
21980;BME280;11154;48.558;9.234;2022-07-23T07:47:18;97662.41;;;24.99;74.58
21980;BME280;11154;48.558;9.234;2022-07-23T07:49:20;97670.09;;;25.02;76.08
21980;BME280;11154;48.558;9.234;2022-07-23T07:51:22;97682.56;;;24.98;74.31
21980;BME280;11154;48.558;9.234;2022-07-23T07:53:25;97683.84;;;24.95;75.84
21980;BME280;11154;48.558;9.234;2022-07-23T07:55:26;97680.72;;;24.87;76.80
21980;BME280;11154;48.558;9.234;2022-07-23T07:57:28;97685.00;;;24.83;76.97
21980;BME280;11154;48.558;9.234;2022-07-23T07:59:30;97688.81;;;24.82;78.02
21980;BME280;11154;48.558;9.234;2022-07-23T08:01:32;97682.22;;;24.78;77.29
21980;BME280;11154;48.558;9.234;2022-07-23T08:03:33;97681.38;;;24.77;78.26
21980;BME280;11154;48.558;9.234;2022-07-23T08:05:35;97685.59;;;24.85;78.48
21980;BME280;11154;48.558;9.234;2022-07-23T08:07:37;97689.38;;;24.84;78.27
21980;BME280;11154;48.558;9.234;2022-07-23T08:09:41;97690.28;;;24.89;78.48
21980;BME280;11154;48.558;9.234;2022-07-23T08:11:42;97692.44;;;24.87;76.33
21980;BME280;11154;48.558;9.234;2022-07-23T08:13:44;97691.38;;;24.88;76.52
21980;BME280;11154;48.558;9.234;2022-07-23T08:15:46;97693.50;;;24.86;74.19
21980;BME280;11154;48.558;9.234;2022-07-23T08:17:49;97703.31;;;24.87;73.22
21980;BME280;11154;48.558;9.234;2022-07-23T08:19:51;97692.44;;;24.87;73.04
21980;BME280;11154;48.558;9.234;2022-07-23T08:21:52;97702.81;;;24.90;73.59
21980;BME280;11154;48.558;9.234;2022-07-23T08:23:54;97694.00;;;25.00;73.54
21980;BME280;11154;48.558;9.234;2022-07-23T08:25:57;97700.03;;;25.02;71.88
21980;BME280;11154;48.558;9.234;2022-07-23T08:28:01;97696.72;;;25.00;71.74
21980;BME280;11154;48.558;9.234;2022-07-23T08:30:04;97687.81;;;25.04;71.82
21980;BME280;11154;48.558;9.234;2022-07-23T08:32:05;97690.41;;;25.11;72.08
21980;BME280;11154;48.558;9.234;2022-07-23T08:34:07;97686.50;;;25.23;73.98
21980;BME280;11154;48.558;9.234;2022-07-23T08:36:09;97681.75;;;25.14;71.19
21980;BME280;11154;48.558;9.234;2022-07-23T08:38:12;97684.84;;;25.06;71.54
21980;BME280;11154;48.558;9.234;2022-07-23T08:40:14;97689.63;;;24.99;71.29
21980;BME280;11154;48.558;9.234;2022-07-23T08:42:18;97692.66;;;25.02;71.93
21980;BME280;11154;48.558;9.234;2022-07-23T08:44:20;97692.44;;;25.04;70.86
21980;BME280;11154;48.558;9.234;2022-07-23T08:46:22;97696.72;;;25.00;69.73
21980;BME280;11154;48.558;9.234;2022-07-23T08:48:27;97690.47;;;24.99;69.80
21980;BME280;11154;48.558;9.234;2022-07-23T08:50:28;97697.22;;;24.97;69.83
21980;BME280;11154;48.558;9.234;2022-07-23T08:52:31;97702.16;;;25.00;70.26
21980;BME280;11154;48.558;9.234;2022-07-23T08:54:34;97706.97;;;25.09;70.46
21980;BME280;11154;48.558;9.234;2022-07-23T08:56:36;97702.94;;;25.12;69.55
21980;BME280;11154;48.558;9.234;2022-07-23T08:58:39;97704.84;;;25.11;68.25
21980;BME280;11154;48.558;9.234;2022-07-23T09:00:41;97701.06;;;25.12;68.53
21980;BME280;11154;48.558;9.234;2022-07-23T09:02:44;97702.78;;;25.18;67.79
21980;BME280;11154;48.558;9.234;2022-07-23T09:04:46;97690.56;;;25.21;67.81
21980;BME280;11154;48.558;9.234;2022-07-23T09:06:47;97697.16;;;25.25;67.62
21980;BME280;11154;48.558;9.234;2022-07-23T09:08:49;97686.84;;;25.27;67.92
21980;BME280;11154;48.558;9.234;2022-07-23T09:10:53;97686.81;;;25.43;69.38
21980;BME280;11154;48.558;9.234;2022-07-23T09:12:56;97678.06;;;25.41;67.59
21980;BME280;11154;48.558;9.234;2022-07-23T09:15:03;97676.59;;;25.34;66.15
21980;BME280;11154;48.558;9.234;2022-07-23T09:17:13;97675.28;;;25.36;66.67
21980;BME280;11154;48.558;9.234;2022-07-23T09:19:15;97673.28;;;25.32;66.15
21980;BME280;11154;48.558;9.234;2022-07-23T09:21:19;97679.75;;;25.26;65.47
21980;BME280;11154;48.558;9.234;2022-07-23T09:23:36;97667.69;;;25.38;67.03
21980;BME280;11154;48.558;9.234;2022-07-23T09:25:39;97672.94;;;25.45;66.67
21980;BME280;11154;48.558;9.234;2022-07-23T09:27:54;97669.44;;;25.65;68.55
21980;BME280;11154;48.558;9.234;2022-07-23T09:29:56;97676.59;;;25.71;65.55
21980;BME280;11154;48.558;9.234;2022-07-23T09:32:00;97675.38;;;25.62;65.43
21980;BME280;11154;48.558;9.234;2022-07-23T09:34:12;97679.09;;;25.56;65.66
21980;BME280;11154;48.558;9.234;2022-07-23T09:36:14;97680.25;;;25.60;66.81
21980;BME280;11154;48.558;9.234;2022-07-23T09:38:16;97687.16;;;25.68;67.15
21980;BME280;11154;48.558;9.234;2022-07-23T09:40:18;97677.28;;;25.62;65.99
21980;BME280;11154;48.558;9.234;2022-07-23T09:42:21;97679.47;;;25.65;67.42
21980;BME280;11154;48.558;9.234;2022-07-23T09:44:23;97679.00;;;25.68;67.97
21980;BME280;11154;48.558;9.234;2022-07-23T09:46:26;97677.44;;;25.55;65.16
21980;BME280;11154;48.558;9.234;2022-07-23T09:48:30;97678.88;;;25.58;66.53
21980;BME280;11154;48.558;9.234;2022-07-23T09:50:32;97672.25;;;25.54;66.08
21980;BME280;11154;48.558;9.234;2022-07-23T09:52:35;97676.91;;;25.53;65.92
21980;BME280;11154;48.558;9.234;2022-07-23T09:54:39;97670.38;;;25.54;66.64
21980;BME280;11154;48.558;9.234;2022-07-23T09:56:41;97673.16;;;25.59;66.35
21980;BME280;11154;48.558;9.234;2022-07-23T09:58:44;97670.94;;;25.56;65.46
21980;BME280;11154;48.558;9.234;2022-07-23T10:00:50;97678.53;;;25.54;65.23
21980;BME280;11154;48.558;9.234;2022-07-23T10:02:52;97673.53;;;25.47;65.61
21980;BME280;11154;48.558;9.234;2022-07-23T10:04:55;97671.94;;;25.50;66.48
21980;BME280;11154;48.558;9.234;2022-07-23T10:06:59;97673.31;;;25.53;65.76
21980;BME280;11154;48.558;9.234;2022-07-23T10:09:01;97673.97;;;25.60;66.58
21980;BME280;11154;48.558;9.234;2022-07-23T10:11:03;97679.19;;;25.61;66.04
21980;BME280;11154;48.558;9.234;2022-07-23T10:13:05;97679.94;;;25.73;65.28
21980;BME280;11154;48.558;9.234;2022-07-23T10:15:24;97677.84;;;25.64;64.28
21980;BME280;11154;48.558;9.234;2022-07-23T10:17:27;97667.13;;;25.57;64.96
21980;BME280;11154;48.558;9.234;2022-07-23T10:19:29;97670.41;;;25.76;68.46
21980;BME280;11154;48.558;9.234;2022-07-23T10:21:39;97668.75;;;25.96;69.69
21980;BME280;11154;48.558;9.234;2022-07-23T10:23:45;97657.56;;;26.19;70.60
21980;BME280;11154;48.558;9.234;2022-07-23T10:25:57;97663.91;;;26.24;66.63
21980;BME280;11154;48.558;9.234;2022-07-23T10:28:10;97663.66;;;26.26;66.63
21980;BME280;11154;48.558;9.234;2022-07-23T10:30:20;97668.25;;;26.21;63.94
21980;BME280;11154;48.558;9.234;2022-07-23T10:32:30;97675.84;;;26.19;64.23
21980;BME280;11154;48.558;9.234;2022-07-23T10:34:43;97682.63;;;26.16;65.72
21980;BME280;11154;48.558;9.234;2022-07-23T10:36:53;97673.88;;;26.14;63.54
21980;BME280;11154;48.558;9.234;2022-07-23T10:39:04;97673.56;;;26.11;63.72
21980;BME280;11154;48.558;9.234;2022-07-23T10:41:06;97681.19;;;26.09;63.87
21980;BME280;11154;48.558;9.234;2022-07-23T10:43:13;97666.66;;;26.03;63.84
21980;BME280;11154;48.558;9.234;2022-07-23T10:45:38;97670.03;;;26.10;64.24
21980;BME280;11154;48.558;9.234;2022-07-23T10:47:39;97675.91;;;26.02;63.73
21980;BME280;11154;48.558;9.234;2022-07-23T10:49:42;97670.72;;;26.01;64.33
21980;BME280;11154;48.558;9.234;2022-07-23T10:54:34;97677.25;;;26.00;65.35